Terminal Aerodrome Forecast
Issued by NWS Shreveport, LA

Home | Current Version | Previous Version | Text Only | Print | Product List | Glossary On
Versions: 1 2 3 4 5 6 7 8 9 10 11 12 13 14
000
FTUS44 KSHV 211700 RRA
TAFMLU
TAF
KMLU 211741Z 2118/2218 16007KT P6SM OVC080
     FM212100 13005KT P6SM OVC070
     FM220000 14003KT P6SM OVC070
     FM221500 14006KT P6SM BKN100=

USA.gov is the U.S. government's official web portal to all federal, state and local government web resources and services.